Time;durP1;ratioP1;P1;durP2;ratioP2;P2;SDS_P1;SDS_P2;PMS_P1;PMS_P2;Temp;Humidity;BMP_temperature;BMP_pressure;BME280_temperature;BME280_humidity;BME280_pressure;Samples;Min_cycle;Max_cycle;Signal;HPM_P1;HPM_P2
2022/12/15 00:40:50;;;;;;;;;58.00;45.25;;;;;2.92;53.88;100080.00;5060080;28;45366;-44
2022/12/15 00:43:15;;;;;;;;;60.25;45.25;;;;;2.87;54.08;100084.31;5059793;28;46192;-46
2022/12/15 00:48:25;;;;;;;;;63.25;50.00;;;;;2.87;54.47;100088.63;5060125;28;45212;-44
2022/12/15 00:50:53;;;;;;;;;64.50;50.25;;;;;2.84;54.40;100083.41;5059741;28;45220;-45
2022/12/15 01:20:42;;;;;;;;;60.00;47.00;;;;;2.68;54.53;100100.56;5062386;28;45422;-43
2022/12/15 01:23:07;;;;;;;;;57.75;46.00;;;;;2.66;54.32;100107.50;5063052;28;45524;-46
2022/12/15 01:25:33;;;;;;;;;44.50;33.75;;;;;2.64;54.43;100107.50;5062968;28;46230;-45
2022/12/15 01:27:58;;;;;;;;;58.25;46.25;;;;;2.64;54.53;100115.28;5078885;27;45187;-45
2022/12/15 01:30:26;;;;;;;;;62.00;48.00;;;;;2.63;54.49;100112.66;5063004;28;45297;-44
2022/12/15 01:32:51;;;;;;;;;60.50;49.00;;;;;2.62;54.19;100114.38;5062944;28;45392;-45
2022/12/15 01:35:18;;;;;;;;;60.25;50.00;;;;;2.57;54.34;100111.75;5062624;28;46412;-45
2022/12/15 01:37:44;;;;;;;;;58.25;47.50;;;;;2.56;54.31;100120.38;5063130;28;45319;-47
2022/12/15 01:42:57;;;;;;;;;62.50;50.25;;;;;2.50;54.49;100115.13;5062536;28;45284;-45
2022/12/15 01:45:23;;;;;;;;;60.50;48.00;;;;;2.47;54.55;100120.31;5062880;28;45928;-43
2022/12/15 01:48:08;;;;;;;;;65.75;49.00;;;;;2.44;54.63;100122.88;5062806;28;45259;-45
2022/12/15 01:50:41;;;;;;;;;65.00;49.50;;;;;2.42;54.39;100114.22;5062392;28;45146;-46
2022/12/15 01:53:07;;;;;;;;;66.75;50.25;;;;;2.37;54.01;100116.75;5077544;28;45370;-47
2022/12/15 01:55:33;;;;;;;;;63.50;49.75;;;;;2.35;54.42;100120.19;5062692;28;45379;-45
2022/12/15 01:58:05;;;;;;;;;61.50;47.75;;;;;2.32;54.33;100121.03;5062367;28;45351;-45
2022/12/15 02:00:31;;;;;;;;;62.00;46.50;;;;;2.27;54.56;100115.78;5062787;28;45376;-48
2022/12/15 02:02:59;;;;;;;;;58.25;45.00;;;;;2.22;54.46;100117.47;5062412;28;45433;-45
2022/12/15 02:05:25;;;;;;;;;64.50;50.75;;;;;2.19;54.27;100117.47;5062238;28;46043;-46
2022/12/15 02:07:51;;;;;;;;;66.75;45.75;;;;;2.14;54.56;100106.19;5062243;28;45289;-45
2022/12/15 02:10:16;;;;;;;;;65.75;50.25;;;;;2.10;54.46;100107.88;5062623;28;45214;-46
2022/12/15 02:13:11;;;;;;;;;58.50;46.75;;;;;2.07;54.35;100096.59;5062174;28;45369;-44
2022/12/15 02:16:17;;;;;;;;;60.75;50.00;;;;;2.01;54.67;100102.56;5062246;28;46070;-45
2022/12/15 02:18:52;;;;;;;;;68.00;50.50;;;;;1.98;54.59;100093.91;5059536;28;45264;-45
2022/12/15 02:21:26;;;;;;;;;59.25;45.50;;;;;1.95;54.37;100105.97;5062415;28;45272;-46
2022/12/15 02:24:10;;;;;;;;;60.75;48.75;;;;;1.91;54.63;100114.56;5078226;27;45561;-44
2022/12/15 02:26:50;;;;;;;;;59.25;46.75;;;;;1.88;54.75;100117.13;5061840;28;45365;-45
2022/12/15 02:29:30;;;;;;;;;64.00;51.25;;;;;1.85;54.46;100114.50;5062364;28;45264;-47
2022/12/15 02:32:02;;;;;;;;;62.25;50.50;;;;;1.82;54.32;100119.63;5061405;28;45410;-44
2022/12/15 02:34:39;;;;;;;;;62.75;50.50;;;;;1.79;54.60;100125.66;5062104;28;45197;-44
2022/12/15 02:37:19;;;;;;;;;59.50;46.00;;;;;1.76;54.43;100127.34;5061946;28;46196;-49
2022/12/15 02:39:45;;;;;;;;;65.00;50.25;;;;;1.70;54.72;100119.47;5061857;28;45255;-44
2022/12/15 02:42:11;;;;;;;;;61.25;47.75;;;;;1.71;54.71;100129.00;5062197;28;45367;-48
2022/12/15 02:44:58;;;;;;;;;61.25;50.00;;;;;1.69;54.37;100128.13;5061844;28;45510;-47
2022/12/15 02:47:48;;;;;;;;;61.50;50.25;;;;;1.65;54.68;100116.88;5061821;28;45276;-47
2022/12/15 02:50:28;;;;;;;;;63.25;47.00;;;;;1.62;54.76;100116.81;5061725;28;45411;-46
2022/12/15 02:53:29;;;;;;;;;63.25;50.25;;;;;1.60;54.60;100132.34;5077248;28;45161;-48
2022/12/15 02:55:57;;;;;;;;;58.50;46.75;;;;;1.56;54.74;100140.94;5077151;28;45395;-51
2022/12/15 02:58:50;;;;;;;;;61.00;49.50;;;;;1.53;54.60;100133.09;5061716;28;45270;-47
2022/12/15 03:01:27;;;;;;;;;60.50;45.75;;;;;1.50;54.37;100135.66;5061393;28;45319;-48
2022/12/15 03:03:54;;;;;;;;;57.50;47.25;;;;;1.49;54.46;100125.28;5077293;28;45353;-47
2022/12/15 03:06:19;;;;;;;;;68.75;51.25;;;;;1.47;54.30;100125.25;5061444;28;45524;-44
2022/12/15 03:08:45;;;;;;;;;59.50;47.00;;;;;1.45;54.57;100121.78;5061460;28;45912;-46
2022/12/15 03:11:10;;;;;;;;;60.25;48.75;;;;;1.41;54.41;100109.63;5061159;28;45272;-45
2022/12/15 03:13:35;;;;;;;;;61.75;49.75;;;;;1.41;54.49;100109.63;5061752;28;45255;-46
2022/12/15 03:16:01;;;;;;;;;65.25;51.75;;;;;1.39;54.68;100107.03;5061310;28;45498;-46
2022/12/15 03:18:26;;;;;;;;;65.50;53.00;;;;;1.37;54.84;100111.34;5061308;28;45340;-45
2022/12/15 03:20:52;;;;;;;;;59.25;47.50;;;;;1.35;54.68;100117.34;5061220;28;45225;-44
2022/12/15 03:23:18;;;;;;;;;63.25;48.50;;;;;1.33;54.64;100117.28;5061453;28;45409;-47
2022/12/15 03:25:44;;;;;;;;;61.75;48.50;;;;;1.32;54.50;100117.28;5061187;28;45363;-45
2022/12/15 03:28:10;;;;;;;;;61.50;49.50;;;;;1.28;54.72;100118.97;5061049;27;45410;-46
2022/12/15 03:30:35;;;;;;;;;70.25;53.75;;;;;1.25;54.67;100122.38;5076515;28;45274;-45
2022/12/15 03:33:01;;;;;;;;;64.25;52.00;;;;;1.24;54.86;100132.72;5061154;28;45298;-45
2022/12/15 03:35:26;;;;;;;;;70.75;51.75;;;;;1.22;54.60;100124.94;5060755;28;45286;-45
2022/12/15 03:37:51;;;;;;;;;65.00;52.00;;;;;1.20;54.92;100121.44;5061003;28;45314;-47
2022/12/15 03:40:17;;;;;;;;;66.25;52.25;;;;;1.18;54.90;100123.13;5060853;28;45313;-44
2022/12/15 03:42:49;;;;;;;;;65.50;51.50;;;;;1.13;54.51;100122.19;5059700;28;45186;-45
2022/12/15 03:45:20;;;;;;;;;71.75;55.00;;;;;1.12;54.82;100123.06;5060832;28;45286;-44
2022/12/15 03:47:46;;;;;;;;;68.75;52.25;;;;;1.09;54.90;100116.09;5060905;28;45173;-44
2022/12/15 03:50:14;;;;;;;;;66.50;51.75;;;;;1.08;54.58;100122.16;5060411;27;45319;-45
2022/12/15 03:52:39;;;;;;;;;65.00;47.50;;;;;1.06;54.94;100110.03;5059584;28;45389;-45
2022/12/15 03:55:06;;;;;;;;;62.50;47.25;;;;;1.03;54.81;100103.09;5060801;28;45574;-44
2022/12/15 03:57:32;;;;;;;;;63.75;48.25;;;;;1.02;55.03;100100.47;5060558;28;46213;-45
2022/12/15 03:59:57;;;;;;;;;62.00;48.25;;;;;1.02;54.88;100103.06;5060714;28;45264;-46
2022/12/15 04:02:23;;;;;;;;;67.50;51.50;;;;;1.00;54.82;100112.53;5060862;28;45265;-45
2022/12/15 04:04:48;;;;;;;;;62.25;49.25;;;;;0.98;55.00;100125.44;5060342;28;45472;-44
2022/12/15 04:07:14;;;;;;;;;63.75;49.50;;;;;0.96;55.03;100133.16;5060555;28;45923;-46
2022/12/15 04:09:40;;;;;;;;;67.25;49.75;;;;;0.98;55.07;100130.59;5060260;28;45232;-46
2022/12/15 04:12:05;;;;;;;;;64.00;50.00;;;;;0.97;54.97;100136.66;5059169;28;45281;-44
2022/12/15 04:14:31;;;;;;;;;64.00;51.00;;;;;0.96;55.02;100116.78;5060360;28;45177;-48
2022/12/15 04:16:56;;;;;;;;;67.75;51.75;;;;;0.96;55.20;100109.88;5060429;28;45399;-45
2022/12/15 04:22:06;;;;;;;;;48.75;43.00;;;;;0.95;55.32;100110.72;5060514;28;45228;-47
2022/12/15 05:32:51;;;;;;;;;63.50;53.00;;;;;1.06;55.50;100123.84;5059383;28;45690;-45
2022/12/15 05:35:16;;;;;;;;;65.75;51.25;;;;;1.09;55.27;100123.00;5059087;28;45316;-43
2022/12/15 05:37:42;;;;;;;;;67.00;50.25;;;;;1.08;55.41;100116.97;5059717;28;45545;-46
2022/12/15 05:40:08;;;;;;;;;65.00;50.50;;;;;1.08;55.49;100121.25;5059632;28;45446;-48
2022/12/15 05:42:33;;;;;;;;;64.00;51.00;;;;;1.06;55.79;100123.84;5059005;28;46409;-48
2022/12/15 05:44:59;;;;;;;;;72.75;53.00;;;;;1.03;55.39;100123.81;5075039;28;46107;-45
2022/12/15 05:47:25;;;;;;;;;68.25;50.75;;;;;1.02;55.42;100119.47;5059556;28;45236;-44
2022/12/15 05:49:50;;;;;;;;;67.00;52.25;;;;;1.01;55.61;100117.72;5057999;28;45276;-45
2022/12/15 05:52:16;;;;;;;;;57.50;48.50;;;;;1.03;55.42;100122.91;5059023;28;46089;-44
2022/12/15 05:54:41;;;;;;;;;63.75;52.25;;;;;1.01;55.56;100116.84;5059156;28;45227;-46
2022/12/15 05:57:07;;;;;;;;;64.25;51.50;;;;;1.01;55.64;100130.66;5059409;28;45225;-44
2022/12/15 05:59:32;;;;;;;;;64.50;50.75;;;;;1.00;55.28;100122.88;5059110;28;45535;-49
2022/12/15 06:01:57;;;;;;;;;69.75;55.00;;;;;0.96;55.57;100111.63;5057985;28;46265;-48
2022/12/15 06:04:23;;;;;;;;;64.50;51.00;;;;;0.98;55.59;100125.44;5057533;28;45399;-45
2022/12/15 06:06:48;;;;;;;;;67.25;52.25;;;;;0.92;55.31;100126.22;5061067;28;45335;-45
2022/12/15 06:09:14;;;;;;;;;70.50;54.75;;;;;0.97;55.53;100136.66;5062395;28;45550;-44
2022/12/15 06:11:40;;;;;;;;;65.50;52.75;;;;;0.93;55.43;100127.97;5062425;28;45376;-44
2022/12/15 06:14:05;;;;;;;;;71.00;54.25;;;;;0.95;55.57;100126.25;5062310;28;45276;-44
2022/12/15 06:16:30;;;;;;;;;71.00;54.33;;;;;0.94;55.47;100124.53;5062664;28;45336;-44
2022/12/15 06:18:58;;;;;;;;;72.00;55.00;;;;;0.87;55.17;100114.94;5062114;28;45609;-44
2022/12/15 06:21:29;;;;;;;;;70.00;53.50;;;;;0.91;55.43;100137.41;5062255;28;45324;-44
2022/12/15 06:23:56;;;;;;;;;70.25;53.25;;;;;0.89;55.49;100133.91;5060911;28;45352;-45
2022/12/15 06:26:30;;;;;;;;;73.50;56.50;;;;;0.89;55.65;100135.66;5062405;28;45275;-44
2022/12/15 06:28:58;;;;;;;;;86.33;66.00;;;;;0.87;55.70;100133.03;5062079;28;45275;-52
2022/12/15 06:31:24;;;;;;;;;72.75;54.75;;;;;0.85;55.41;100118.34;5053005;28;46089;-47
2022/12/15 06:33:54;;;;;;;;;66.00;50.75;;;;;0.83;55.56;100120.91;5060289;28;45240;-45
2022/12/15 06:36:20;;;;;;;;;65.75;52.75;;;;;0.83;55.48;100128.69;5062335;27;45322;-45
2022/12/15 06:38:45;;;;;;;;;68.00;51.50;;;;;0.84;55.65;100132.13;5062003;28;45381;-45
2022/12/15 06:41:14;;;;;;;;;73.50;56.00;;;;;0.79;55.33;100135.50;5061840;28;47110;-45
2022/12/15 06:43:40;;;;;;;;;68.75;51.75;;;;;0.81;55.60;100141.56;5061923;28;45263;-46
2022/12/15 06:46:06;;;;;;;;;66.50;53.00;;;;;0.80;55.41;100138.97;5062148;28;45236;-46
2022/12/15 06:48:31;;;;;;;;;61.50;50.50;;;;;0.78;55.59;100138.94;5061809;28;45632;-45
2022/12/15 06:51:03;;;;;;;;;65.25;52.00;;;;;0.75;55.84;100132.84;5061842;28;46434;-45
2022/12/15 06:53:29;;;;;;;;;65.00;52.75;;;;;0.76;55.51;100132.00;5061696;28;45197;-44
2022/12/15 06:56:00;;;;;;;;;70.25;53.00;;;;;0.76;55.47;100134.59;5077421;27;45259;-44
2022/12/15 06:58:26;;;;;;;;;73.00;55.67;;;;;0.74;55.68;100138.84;5061807;28;45354;-45
2022/12/15 07:00:51;;;;;;;;;74.00;53.00;;;;;0.73;55.59;100144.88;5061465;28;46074;-46
2022/12/15 07:03:18;;;;;;;;;70.50;54.00;;;;;0.71;55.72;100150.03;5061431;28;45285;-44
2022/12/15 07:05:45;;;;;;;;;72.00;55.00;;;;;0.70;55.46;100142.25;5061720;28;45237;-44
2022/12/15 07:08:12;;;;;;;;;66.00;54.00;;;;;0.70;55.61;100147.41;5061957;28;45228;-47
2022/12/15 07:10:42;;;;;;;;;74.00;53.00;;;;;0.68;55.73;100143.94;5061340;28;45724;-44
2022/12/15 07:13:12;;;;;;;;;67.00;51.00;;;;;0.68;55.76;100146.50;5061491;28;45231;-45
2022/12/15 07:15:38;;;;;;;;;71.33;56.67;;;;;0.67;55.64;100150.81;5061617;28;45385;-45
2022/12/15 07:18:04;;;;;;;;;45.50;36.50;;;;;0.67;55.60;100158.59;5076504;28;45343;-49
2022/12/15 07:20:30;;;;;;;;;70.00;52.25;;;;;0.68;55.60;100172.38;5061040;28;45351;-48
2022/12/15 07:22:55;;;;;;;;;67.75;55.75;;;;;0.66;55.68;100174.94;5056951;28;45482;-44
2022/12/15 07:25:21;;;;;;;;;71.00;52.75;;;;;0.67;55.36;100184.44;5066741;28;45513;-46
2022/12/15 07:27:46;;;;;;;;;74.25;57.00;;;;;0.66;55.78;100181.84;5054178;28;45453;-44
2022/12/15 07:30:14;;;;;;;;;69.25;56.00;;;;;0.64;55.68;100190.44;5060839;28;46249;-45
2022/12/15 07:32:40;;;;;;;;;68.75;50.50;;;;;0.63;55.80;100193.00;5050419;28;45235;-46
2022/12/15 07:35:07;;;;;;;;;67.25;53.75;;;;;0.63;55.50;100191.28;5060802;28;45407;-45
2022/12/15 07:37:33;;;;;;;;;74.33;56.33;;;;;0.67;55.73;100201.66;5052895;28;45525;-45
2022/12/15 07:39:59;;;;;;;;;67.00;54.00;;;;;0.68;55.77;100206.88;5074642;28;47370;-47
2022/12/15 07:42:24;;;;;;;;;70.00;54.50;;;;;0.68;55.62;100201.72;5057181;28;45263;-49
2022/12/15 07:44:50;;;;;;;;;77.50;59.25;;;;;0.69;55.67;100211.19;5060700;28;46506;-49
2022/12/15 07:47:15;;;;;;;;;72.50;56.00;;;;;0.70;55.69;100197.41;5060788;28;45268;-47
2022/12/15 07:49:40;;;;;;;;;59.50;47.00;;;;;0.72;55.75;100202.66;5060123;28;46315;-46
2022/12/15 07:52:06;;;;;;;;;70.00;56.50;;;;;0.72;55.70;100208.69;5060434;28;45396;-45
2022/12/15 07:54:31;;;;;;;;;69.75;55.75;;;;;0.71;55.86;100198.31;5060589;28;45286;-48
2022/12/15 07:56:58;;;;;;;;;73.67;56.00;;;;;0.73;56.06;100204.38;5059020;28;45310;-50
2022/12/15 07:59:24;;;;;;;;;69.25;52.75;;;;;0.75;55.67;100200.97;5059161;28;45382;-48
2022/12/15 08:01:51;;;;;;;;;65.50;48.50;;;;;0.75;55.78;100207.84;5060528;28;45269;-46
2022/12/15 08:04:17;;;;;;;;;69.25;53.25;;;;;0.78;56.03;100213.06;5060296;28;45473;-48
2022/12/15 08:06:42;;;;;;;;;68.75;53.25;;;;;0.81;56.23;100218.31;5060384;28;45438;-47
2022/12/15 08:09:08;;;;;;;;;68.25;55.25;;;;;0.81;56.05;100219.16;5060509;28;45304;-47
2022/12/15 08:11:34;;;;;;;;;71.25;55.75;;;;;0.84;55.96;100218.34;5060317;28;45413;-46
2022/12/15 08:13:59;;;;;;;;;71.25;55.00;;;;;0.88;55.81;100224.44;5060655;28;45332;-48
2022/12/15 08:16:26;;;;;;;;;71.00;55.75;;;;;0.92;56.18;100232.31;5060362;28;45338;-50
2022/12/15 08:18:51;;;;;;;;;80.33;58.00;;;;;0.95;55.98;100232.34;5060169;28;45401;-46
2022/12/15 08:21:17;;;;;;;;;69.50;52.75;;;;;0.96;56.23;100236.69;5060377;28;45442;-46
2022/12/15 08:23:42;;;;;;;;;70.67;54.67;;;;;0.99;56.34;100232.41;5060658;28;45465;-46
2022/12/15 08:26:11;;;;;;;;;67.00;51.67;;;;;1.07;56.06;100254.09;5060175;28;45382;-46
2022/12/15 08:28:39;;;;;;;;;70.00;52.75;;;;;1.11;56.11;100255.91;5059581;28;46032;-49
2022/12/15 08:31:07;;;;;;;;;70.33;56.67;;;;;1.15;56.35;100259.44;5059967;28;45350;-49
2022/12/15 08:33:33;;;;;;;;;73.00;55.50;;;;;1.19;56.33;100254.31;5052775;28;45500;-49
2022/12/15 08:36:01;;;;;;;;;71.50;55.00;;;;;1.22;56.17;100249.19;5060012;28;45248;-48
2022/12/15 08:38:26;;;;;;;;;76.67;58.00;;;;;1.29;56.34;100250.16;5060090;28;47054;-46
2022/12/15 08:40:52;;;;;;;;;72.67;56.33;;;;;1.33;56.11;100238.13;5060092;28;45297;-48
2022/12/15 08:43:17;;;;;;;;;70.00;54.33;;;;;1.37;56.33;100235.63;5060245;28;45278;-46
2022/12/15 08:45:42;;;;;;;;;70.00;55.00;;;;;1.39;56.09;100238.22;5060194;28;45237;-49
2022/12/15 08:48:08;;;;;;;;;73.25;56.25;;;;;1.46;56.16;100238.34;5058434;28;46166;-45
2022/12/15 08:50:33;;;;;;;;;73.50;59.00;;;;;1.50;56.59;100243.53;5059882;28;45360;-46
2022/12/15 08:52:58;;;;;;;;;73.50;55.25;;;;;1.55;56.30;100242.78;5059831;28;45240;-46
2022/12/15 08:55:24;;;;;;;;;72.25;56.00;;;;;1.56;56.63;100244.53;5058467;28;45253;-47
2022/12/15 08:57:50;;;;;;;;;68.00;55.25;;;;;1.63;56.52;100248.06;5058449;28;47085;-46
2022/12/15 09:00:16;;;;;;;;;72.25;55.50;;;;;1.68;56.59;100237.78;5059713;28;45256;-49
2022/12/15 09:02:42;;;;;;;;;71.00;54.33;;;;;1.71;56.31;100230.03;5059986;28;45334;-47
2022/12/15 09:05:08;;;;;;;;;71.25;57.50;;;;;1.76;56.23;100233.56;5059453;28;45572;-45
2022/12/15 09:07:33;;;;;;;;;73.67;56.33;;;;;1.82;56.10;100235.38;5059803;28;45336;-47
2022/12/15 09:09:59;;;;;;;;;69.50;52.50;;;;;1.86;56.54;100238.03;5059499;28;45228;-45
2022/12/15 09:12:24;;;;;;;;;76.33;58.67;;;;;1.91;56.11;100232.91;5058554;28;45363;-46
2022/12/15 09:14:49;;;;;;;;;73.00;56.00;;;;;1.91;56.48;100228.59;5059598;28;45178;-47
2022/12/15 09:17:15;;;;;;;;;76.50;58.75;;;;;1.94;56.13;100231.22;5059726;28;45406;-44
2022/12/15 09:19:40;;;;;;;;;70.00;55.25;;;;;2.05;56.13;100243.44;5059317;28;45304;-44
2022/12/15 09:22:06;;;;;;;;;71.00;53.75;;;;;2.11;56.46;100251.28;5075322;28;45406;-44
2022/12/15 09:24:32;;;;;;;;;69.00;54.00;;;;;2.15;56.42;100249.63;5054679;28;45233;-44
2022/12/15 09:26:57;;;;;;;;;76.25;57.75;;;;;2.21;56.27;100249.69;5054792;28;46961;-45
2022/12/15 09:29:23;;;;;;;;;72.25;54.50;;;;;2.24;56.12;100242.81;5075121;28;46121;-44
2022/12/15 09:31:48;;;;;;;;;69.00;53.00;;;;;2.26;56.33;100248.03;5059449;28;45298;-46
2022/12/15 09:34:17;;;;;;;;;73.25;53.00;;;;;2.33;56.46;100243.78;5059479;28;45383;-44
2022/12/15 09:36:42;;;;;;;;;70.25;54.75;;;;;2.36;56.49;100241.22;5059214;28;45364;-44
2022/12/15 09:39:10;;;;;;;;;67.50;53.50;;;;;2.42;55.99;100256.88;5075184;28;45262;-47
2022/12/15 09:41:38;;;;;;;;;64.75;52.00;;;;;2.46;55.98;100255.19;5060488;28;45269;-47
2022/12/15 09:44:06;;;;;;;;;74.50;56.50;;;;;2.43;56.25;100250.84;5063160;28;45386;-46
2022/12/15 09:46:48;;;;;;;;;70.75;54.50;;;;;2.51;56.42;100261.28;5077948;28;46498;-46
2022/12/15 09:49:27;;;;;;;;;72.00;54.75;;;;;2.53;56.43;100272.53;5062694;28;45356;-46
2022/12/15 09:52:04;;;;;;;;;68.00;46.50;;;;;2.54;55.98;100275.16;5062823;28;45303;-48
2022/12/15 09:54:33;;;;;;;;;65.75;53.50;;;;;2.57;56.10;100276.91;5062773;28;45280;-46
2022/12/15 09:57:04;;;;;;;;;71.75;55.50;;;;;2.60;55.90;100277.81;5062578;28;46293;-46
2022/12/15 10:00:08;;;;;;;;;75.50;55.50;;;;;2.64;55.86;100275.25;5062558;28;45379;-46
2022/12/15 10:03:04;;;;;;;;;71.75;54.25;;;;;2.67;56.00;100283.09;5033686;28;45534;-48
2022/12/15 10:05:48;;;;;;;;;68.50;54.75;;;;;2.70;56.11;100275.31;5078221;28;45371;-44
2022/12/15 10:08:14;;;;;;;;;66.50;54.25;;;;;2.75;56.19;100265.84;5062618;28;45342;-49
2022/12/15 10:10:55;;;;;;;;;70.75;54.75;;;;;2.81;56.15;100263.31;5062326;28;45453;-48
2022/12/15 10:13:29;;;;;;;;;72.75;55.50;;;;;2.89;55.93;100264.28;5062654;28;45371;-46
2022/12/15 10:16:03;;;;;;;;;69.25;54.25;;;;;3.02;55.97;100273.06;5062384;28;45399;-47
2022/12/15 10:18:37;;;;;;;;;65.75;52.75;;;;;3.15;56.38;100274.03;5060820;28;46245;-47
2022/12/15 10:21:02;;;;;;;;;66.00;52.50;;;;;3.30;56.06;100269.84;5060979;28;45239;-45
2022/12/15 10:23:28;;;;;;;;;68.75;52.75;;;;;3.33;56.39;100246.47;5060600;28;45421;-46
2022/12/15 10:26:15;;;;;;;;;65.50;53.25;;;;;3.61;56.51;100260.53;5054382;28;45252;-46
2022/12/15 10:28:40;;;;;;;;;68.50;54.75;;;;;3.78;56.14;100251.97;5062062;28;46061;-45
2022/12/15 10:31:12;;;;;;;;;66.75;51.00;;;;;3.95;56.24;100244.25;5062138;28;45433;-44
2022/12/15 10:33:41;;;;;;;;;66.00;53.25;;;;;4.10;56.40;100233.03;5062046;28;45297;-48
2022/12/15 10:36:12;;;;;;;;;64.00;49.75;;;;;4.31;56.27;100234.88;5062134;28;45470;-45
2022/12/15 10:38:41;;;;;;;;;69.00;54.50;;;;;4.49;56.29;100234.03;5061896;28;47000;-49
2022/12/15 10:41:09;;;;;;;;;66.25;53.00;;;;;4.66;56.45;100226.28;5061873;28;45312;-44
2022/12/15 10:43:37;;;;;;;;;67.25;51.50;;;;;4.84;56.32;100225.44;5062097;28;45248;-47
2022/12/15 10:46:17;;;;;;;;;67.25;52.50;;;;;5.03;56.29;100205.47;5061993;28;45405;-45
2022/12/15 10:48:45;;;;;;;;;66.75;52.25;;;;;5.21;56.38;100195.06;5062183;27;46205;-45
2022/12/15 10:51:31;;;;;;;;;64.25;50.00;;;;;5.38;56.39;100186.34;5061544;28;45219;-46
2022/12/15 10:54:09;;;;;;;;;65.00;50.25;;;;;5.59;56.24;100181.97;5061801;28;45299;-47
2022/12/15 10:56:59;;;;;;;;;67.75;53.75;;;;;5.78;56.36;100173.22;5077295;28;45555;-47
2022/12/15 10:59:30;;;;;;;;;61.75;49.50;;;;;5.92;56.35;100167.94;5061642;28;45901;-46
2022/12/15 11:02:31;;;;;;;;;59.00;48.00;;;;;6.05;56.01;100166.19;5061633;27;45382;-48
2022/12/15 11:05:02;;;;;;;;;61.75;50.50;;;;;6.17;56.04;100165.25;5061584;28;45321;-46
2022/12/15 11:07:43;;;;;;;;;67.00;51.00;;;;;6.27;56.02;100151.28;5061612;28;45393;-44
2022/12/15 11:10:23;;;;;;;;;61.25;50.00;;;;;6.34;55.92;100157.34;5061517;28;45643;-45
2022/12/15 11:13:09;;;;;;;;;64.25;50.00;;;;;6.43;55.95;100159.03;5061422;28;45236;-46
2022/12/15 11:16:02;;;;;;;;;66.75;51.00;;;;;6.50;55.94;100148.53;5061637;28;45348;-47
2022/12/15 11:18:28;;;;;;;;;63.00;50.00;;;;;6.58;55.64;100143.25;5066231;28;45312;-45
2022/12/15 11:21:16;;;;;;;;;62.00;49.25;;;;;6.66;55.60;100146.66;5061593;28;45353;-46
2022/12/15 11:24:03;;;;;;;;;61.00;46.75;;;;;6.73;55.56;100134.44;5051589;28;45161;-45
2022/12/15 11:26:41;;;;;;;;;63.50;49.00;;;;;6.84;55.46;100129.09;5054483;28;45425;-48
2022/12/15 11:29:19;;;;;;;;;61.75;49.75;;;;;6.96;55.45;100115.09;5061334;28;45276;-45
2022/12/15 11:31:46;;;;;;;;;59.00;47.25;;;;;7.07;55.52;100120.19;5061145;28;45395;-46
2022/12/15 11:34:17;;;;;;;;;63.00;50.00;;;;;7.18;55.44;100123.56;5061006;28;45243;-45
2022/12/15 11:36:48;;;;;;;;;62.75;48.75;;;;;7.32;55.38;100126.06;5061103;28;45342;-48
2022/12/15 11:39:41;;;;;;;;;57.50;48.25;;;;;7.50;55.29;100122.38;5061271;28;45593;-45
2022/12/15 11:42:45;;;;;;;;;53.75;43.75;;;;;7.69;55.38;100106.47;5060773;28;46201;-45
2022/12/15 11:45:37;;;;;;;;;62.75;48.00;;;;;7.84;55.45;100114.13;5061068;28;45338;-45
2022/12/15 11:48:13;;;;;;;;;59.00;48.00;;;;;7.96;55.37;100113.97;5060853;28;45450;-47
2022/12/15 11:51:01;;;;;;;;;58.75;47.00;;;;;8.05;55.30;100104.22;5061186;28;45283;-46
2022/12/15 11:53:57;;;;;;;;;56.75;45.00;;;;;8.12;55.00;100098.03;5060631;28;46242;-49
2022/12/15 11:56:37;;;;;;;;;57.25;46.25;;;;;8.17;54.50;100100.59;5060748;28;45224;-48
2022/12/15 11:59:14;;;;;;;;;61.00;48.00;;;;;8.19;54.63;100098.81;5061302;28;45334;-50
2022/12/15 12:02:08;;;;;;;;;57.00;46.00;;;;;8.20;54.91;100093.56;5060740;28;45256;-47
2022/12/15 12:04:41;;;;;;;;;61.25;47.50;;;;;8.21;54.62;100086.56;5059355;28;46251;-46
2022/12/15 12:07:24;;;;;;;;;55.50;46.50;;;;;8.22;54.58;100080.44;5060729;28;45321;-45
2022/12/15 12:10:30;;;;;;;;;55.25;44.25;;;;;8.21;54.30;100071.72;5060882;28;45379;-45
2022/12/15 12:13:10;;;;;;;;;56.75;42.75;;;;;8.24;54.15;100074.31;5060615;28;45331;-46
2022/12/15 12:16:08;;;;;;;;;57.00;44.75;;;;;8.24;54.48;100073.44;5076046;28;46151;-47
2022/12/15 12:18:55;;;;;;;;;43.25;35.00;;;;;8.23;54.18;100069.94;5060283;28;45355;-47
2022/12/15 12:21:30;;;;;;;;;55.75;44.25;;;;;8.20;54.03;100070.00;5060649;28;45409;-48
2022/12/15 12:24:20;;;;;;;;;58.50;45.50;;;;;8.23;54.01;100074.34;5060589;28;45309;-46
2022/12/15 12:26:55;;;;;;;;;56.00;44.00;;;;;8.21;53.97;100066.47;5055366;28;46499;-48
2022/12/15 12:29:37;;;;;;;;;53.00;44.00;;;;;8.20;53.81;100058.66;5060361;28;45266;-47
2022/12/15 12:32:31;;;;;;;;;59.00;45.25;;;;;8.20;53.42;100054.31;5060236;28;45268;-49
2022/12/15 12:35:15;;;;;;;;;55.25;43.25;;;;;8.16;53.53;100054.38;5059942;28;45269;-46
2022/12/15 12:37:58;;;;;;;;;56.00;45.75;;;;;8.13;53.38;100053.50;5060240;28;47583;-46
2022/12/15 12:40:35;;;;;;;;;58.25;47.50;;;;;8.09;53.13;100051.00;5060307;28;45510;-45
2022/12/15 12:43:01;;;;;;;;;58.00;45.25;;;;;8.06;53.43;100051.91;5060001;28;45415;-46
2022/12/15 12:45:47;;;;;;;;;57.50;46.00;;;;;8.05;53.45;100054.50;5060277;28;45584;-45
2022/12/15 12:48:23;;;;;;;;;57.50;45.25;;;;;8.08;53.16;100050.09;5059764;28;46219;-45
2022/12/15 12:50:49;;;;;;;;;54.25;44.25;;;;;8.10;53.20;100050.97;5059042;28;45299;-46
2022/12/15 12:53:32;;;;;;;;;55.25;46.00;;;;;8.18;53.40;100036.91;5059796;27;45155;-45
2022/12/15 12:55:57;;;;;;;;;56.75;46.50;;;;;8.27;53.26;100040.22;5060304;27;45474;-47
2022/12/15 12:58:30;;;;;;;;;54.00;43.25;;;;;8.36;53.27;100043.59;5059936;28;45322;-45
2022/12/15 13:01:11;;;;;;;;;51.25;42.50;;;;;8.46;53.35;100039.94;5059903;28;45346;-46
2022/12/15 13:03:41;;;;;;;;;53.25;44.50;;;;;8.55;53.29;100025.84;5059911;28;45231;-47
2022/12/15 13:06:35;;;;;;;;;33.00;27.75;;;;;8.64;53.17;100016.97;5059758;28;45354;-46
2022/12/15 13:09:15;;;;;;;;;56.75;44.50;;;;;8.79;53.27;100014.06;5059727;28;45268;-46
2022/12/15 13:11:58;;;;;;;;;51.75;43.00;;;;;8.93;53.14;100008.56;5059692;28;45237;-46
2022/12/15 13:14:40;;;;;;;;;53.25;41.00;;;;;9.09;53.23;100012.63;5059834;28;45297;-46
2022/12/15 13:17:15;;;;;;;;;54.75;43.00;;;;;9.18;53.24;99989.72;5063156;28;45355;-47
2022/12/15 13:19:52;;;;;;;;;55.50;44.50;;;;;9.45;53.11;100011.91;5063197;28;47198;-48
2022/12/15 13:22:30;;;;;;;;;52.00;42.25;;;;;9.64;53.08;100006.25;5063323;28;45317;-47
2022/12/15 13:24:56;;;;;;;;;52.75;39.75;;;;;9.83;53.22;99989.19;5055062;28;45422;-48
2022/12/15 13:27:22;;;;;;;;;51.50;42.75;;;;;10.07;53.04;100006.16;5063192;28;45529;-45
2022/12/15 13:29:59;;;;;;;;;51.75;42.00;;;;;10.29;53.03;100004.75;5062980;28;46097;-46
2022/12/15 13:32:32;;;;;;;;;50.00;41.00;;;;;10.51;53.09;100015.63;5063029;28;45412;-46
2022/12/15 13:35:21;;;;;;;;;49.50;38.25;;;;;10.75;53.28;100019.38;5062881;28;45514;-48
2022/12/15 13:38:02;;;;;;;;;51.50;43.00;;;;;11.03;53.13;100014.22;5062713;28;45482;-47
2022/12/15 13:40:34;;;;;;;;;61.00;47.75;;;;;11.32;52.88;100012.56;5062961;28;46192;-45
2022/12/15 13:43:08;;;;;;;;;58.00;45.00;;;;;11.54;52.87;100017.19;5062834;28;45385;-48
2022/12/15 13:45:44;;;;;;;;;45.25;38.00;;;;;11.76;52.87;100013.88;5078839;28;45305;-49
2022/12/15 13:48:16;;;;;;;;;49.75;42.00;;;;;11.91;52.68;100016.06;5062885;28;45228;-49
2022/12/15 13:51:20;;;;;;;;;55.75;44.75;;;;;12.03;52.57;100020.97;5062811;28;45417;-48
2022/12/15 13:53:51;;;;;;;;;54.00;43.75;;;;;12.09;52.41;100016.41;5062966;28;45427;-46
2022/12/15 13:56:38;;;;;;;;;53.00;42.25;;;;;12.10;52.12;100012.88;5062703;28;45254;-47
2022/12/15 13:59:15;;;;;;;;;53.75;44.00;;;;;12.05;52.18;100014.78;5062585;28;45469;-47
2022/12/15 14:01:48;;;;;;;;;49.75;40.75;;;;;11.98;51.83;100012.34;5062494;27;45668;-47